createdAt,value
2019-04-29T00:01:37.202Z,18.73
2019-04-29T00:04:07.607Z,18.40
2019-04-29T00:06:38.116Z,17.15
2019-04-29T00:09:10.660Z,20.02
2019-04-29T00:11:41.409Z,22.60
2019-04-29T00:14:11.852Z,21.73
2019-04-29T00:16:47.844Z,17.60
2019-04-29T00:19:49.420Z,18.12
2019-04-29T00:22:19.876Z,22.30
2019-04-29T00:24:50.409Z,19.45
2019-04-29T00:27:20.977Z,20.68
2019-04-29T00:29:51.452Z,19.17
2019-04-29T00:32:22.043Z,19.52
2019-04-29T00:34:52.427Z,22.58
2019-04-29T00:37:37.778Z,18.62
2019-04-29T00:40:39.346Z,20.72
2019-04-29T00:43:20.212Z,19.07
2019-04-29T00:45:50.736Z,18.55
2019-04-29T00:48:21.274Z,16.07
2019-04-29T00:50:51.702Z,20.08
2019-04-29T00:53:22.287Z,19.80
2019-04-29T00:55:53.560Z,20.95
2019-04-29T00:58:24.022Z,18.75
2019-04-29T01:00:54.460Z,22.40
2019-04-29T01:03:25.026Z,19.67
2019-04-29T01:05:55.451Z,23.52
2019-04-29T01:08:25.956Z,21.77
2019-04-29T01:10:56.603Z,22.40
2019-04-29T01:13:27.119Z,20.50
2019-04-29T01:15:57.561Z,20.88
2019-04-29T01:18:28.035Z,16.42
2019-04-29T01:20:58.516Z,20.12
2019-04-29T01:23:28.968Z,23.30
2019-04-29T01:26:03.506Z,18.92
2019-04-29T01:28:43.582Z,22.27
2019-04-29T01:31:18.443Z,24.43
2019-04-29T01:33:50.484Z,19.23
2019-04-29T01:36:46.093Z,19.07
2019-04-29T01:39:16.848Z,18.70
2019-04-29T01:42:05.228Z,23.92
2019-04-29T01:44:37.128Z,20.48
2019-04-29T01:47:07.551Z,24.20
2019-04-29T01:49:38.942Z,23.85
2019-04-29T01:52:09.490Z,19.27
2019-04-29T01:54:39.989Z,20.35
2019-04-29T01:57:11.508Z,21.37
2019-04-29T01:59:41.909Z,21.75
2019-04-29T02:02:12.410Z,19.05
2019-04-29T02:04:42.838Z,23.07
2019-04-29T02:07:13.276Z,21.02
2019-04-29T02:10:15.143Z,21.85
2019-04-29T02:12:45.650Z,19.82
2019-04-29T02:15:16.059Z,24.23
2019-04-29T02:17:46.557Z,21.02
2019-04-29T02:20:16.850Z,21.30
2019-04-29T02:23:12.062Z,20.17
2019-04-29T02:25:44.125Z,20.02
2019-04-29T02:28:14.581Z,23.87
2019-04-29T02:30:47.165Z,19.67
2019-04-29T02:33:17.677Z,23.75
2019-04-29T02:35:48.138Z,22.48
2019-04-29T02:38:52.901Z,25.37
2019-04-29T02:41:35.006Z,24.30
2019-04-29T02:44:07.247Z,26.40
2019-04-29T02:46:37.787Z,24.98
2019-04-29T02:49:08.298Z,20.77
2019-04-29T02:51:48.596Z,23.62
2019-04-29T02:54:19.052Z,21.48
2019-04-29T02:57:08.540Z,23.98
2019-04-29T02:59:43.020Z,26.82
2019-04-29T03:02:19.286Z,26.30
2019-04-29T03:05:14.576Z,24.33
2019-04-29T03:07:44.985Z,23.83
2019-04-29T03:10:15.314Z,20.65
2019-04-29T03:12:45.800Z,24.55
2019-04-29T03:15:24.684Z,22.20
2019-04-29T03:17:55.119Z,20.43
2019-04-29T03:20:30.607Z,26.40
2019-04-29T03:23:09.002Z,27.58
2019-04-29T03:25:39.432Z,24.57
2019-04-29T03:28:09.922Z,20.35
2019-04-29T03:30:40.489Z,26.10
2019-04-29T03:33:10.921Z,24.12
2019-04-29T03:35:41.237Z,25.50
2019-04-29T03:38:11.749Z,28.20
2019-04-29T03:40:42.515Z,21.65
2019-04-29T03:43:13.006Z,25.92
2019-04-29T03:45:43.463Z,26.10
2019-04-29T03:48:14.073Z,26.60
2019-04-29T03:50:44.343Z,25.35
2019-04-29T03:53:14.751Z,21.57
2019-04-29T03:55:45.255Z,21.45
2019-04-29T03:58:15.843Z,24.98
2019-04-29T04:00:47.878Z,24.00
2019-04-29T04:03:25.815Z,25.52
2019-04-29T04:06:21.289Z,24.25
2019-04-29T04:09:09.388Z,23.00
2019-04-29T04:11:39.849Z,22.47
2019-04-29T04:14:10.357Z,23.95
2019-04-29T04:17:06.366Z,23.12
2019-04-29T04:19:36.849Z,27.33
2019-04-29T04:22:07.370Z,24.20
2019-04-29T04:24:37.826Z,24.85
2019-04-29T04:27:08.331Z,22.58
2019-04-29T04:29:38.916Z,24.20
2019-04-29T04:32:09.316Z,26.93
2019-04-29T04:34:39.851Z,23.22
2019-04-29T04:37:10.335Z,26.33
2019-04-29T04:39:46.829Z,23.00
2019-04-29T04:42:17.370Z,26.40
2019-04-29T04:44:50.808Z,23.20
2019-04-29T04:47:21.337Z,23.87
2019-04-29T04:49:51.892Z,23.10
2019-04-29T04:52:22.423Z,23.18
2019-04-29T04:54:54.465Z,24.00
2019-04-29T04:57:24.896Z,26.05
2019-04-29T04:59:55.457Z,23.92
2019-04-29T05:02:26.811Z,23.25
2019-04-29T05:04:57.324Z,26.48
2019-04-29T05:07:27.724Z,24.65
2019-04-29T05:09:58.164Z,25.15
2019-04-29T05:12:28.627Z,27.58
2019-04-29T05:14:59.005Z,25.70
2019-04-29T05:17:29.558Z,25.02
2019-04-29T05:20:00.078Z,26.97
2019-04-29T05:22:30.597Z,24.70
2019-04-29T05:25:01.008Z,24.75
2019-04-29T05:27:31.451Z,26.12
2019-04-29T05:30:02.029Z,21.90
2019-04-29T05:32:32.787Z,25.30
2019-04-29T05:35:05.294Z,26.62
2019-04-29T05:37:50.667Z,27.22
2019-04-29T05:40:45.067Z,32.08
2019-04-29T05:43:17.755Z,30.02
2019-04-29T05:45:55.172Z,24.95
2019-04-29T05:48:27.703Z,27.40
2019-04-29T05:51:17.010Z,29.55
2019-04-29T05:53:54.866Z,31.12
2019-04-29T05:56:20.900Z,31.57
2019-04-29T05:58:51.431Z,28.90
2019-04-29T06:01:25.428Z,27.42
2019-04-29T06:03:55.927Z,25.85
2019-04-29T06:06:26.810Z,29.48
2019-04-29T06:08:57.521Z,27.75
2019-04-29T06:11:28.151Z,27.52
2019-04-29T06:14:05.964Z,28.65
2019-04-29T06:16:39.564Z,32.73
2019-04-29T06:19:16.743Z,31.33
2019-04-29T06:21:47.605Z,33.38
2019-04-29T06:24:18.744Z,35.30
2019-04-29T06:26:57.499Z,30.30
2019-04-29T06:29:30.564Z,35.80
2019-04-29T06:32:03.733Z,33.80
2019-04-29T06:34:40.086Z,31.62
2019-04-29T06:37:06.852Z,28.20
2019-04-29T06:39:37.824Z,29.75
2019-04-29T06:42:10.042Z,30.65
2019-04-29T06:44:44.458Z,30.25
2019-04-29T06:47:16.705Z,33.33
2019-04-29T06:49:45.796Z,25.35
2019-04-29T06:52:16.537Z,32.65
2019-04-29T06:54:53.102Z,29.10
2019-04-29T06:57:25.682Z,31.65
2019-04-29T06:59:59.084Z,43.00
2019-04-29T07:02:31.276Z,39.10
2019-04-29T07:05:04.972Z,26.73
2019-04-29T07:07:35.776Z,36.97
2019-04-29T07:10:09.243Z,33.40
2019-04-29T07:12:47.106Z,28.98
2019-04-29T07:15:14.973Z,30.10
2019-04-29T07:17:45.569Z,28.95
2019-04-29T07:20:16.178Z,31.35
2019-04-29T07:22:46.911Z,29.82
2019-04-29T07:25:31.464Z,32.00
2019-04-29T07:27:55.057Z,29.02
2019-04-29T07:32:55.706Z,33.48
2019-04-29T07:35:26.251Z,34.55
2019-04-29T07:37:57.078Z,29.25
2019-04-29T07:40:27.649Z,37.10
2019-04-29T07:42:58.339Z,39.30
2019-04-29T07:48:26.021Z,37.98
2019-04-29T07:50:59.422Z,31.50
2019-04-29T07:53:36.738Z,36.05
2019-04-29T07:56:06.474Z,31.70
2019-04-29T07:58:34.255Z,31.82
2019-04-29T08:01:06.382Z,29.95
2019-04-29T08:03:37.124Z,33.02
2019-04-29T08:06:07.556Z,29.85
2019-04-29T08:08:38.039Z,33.25
2019-04-29T08:11:11.292Z,34.27
2019-04-29T08:13:50.820Z,29.67
2019-04-29T08:16:22.141Z,31.80
2019-04-29T08:18:53.614Z,34.63
2019-04-29T08:21:38.890Z,33.88
2019-04-29T08:24:11.599Z,31.37
2019-04-29T08:26:47.904Z,39.73
2019-04-29T08:29:22.464Z,32.85
2019-04-29T08:31:57.121Z,31.05
2019-04-29T08:34:25.396Z,38.78
2019-04-29T08:36:56.830Z,29.12
2019-04-29T08:39:29.367Z,33.13
2019-04-29T08:42:03.754Z,27.17
2019-04-29T08:44:59.174Z,30.20
2019-04-29T08:47:31.893Z,36.53
2019-04-29T08:50:02.394Z,44.38
2019-04-29T08:52:38.187Z,27.22
2019-04-29T08:55:06.648Z,36.75
2019-04-29T08:57:37.558Z,29.65
2019-04-29T09:00:09.640Z,35.13
2019-04-29T09:02:46.908Z,34.43
2019-04-29T09:05:15.783Z,28.50
2019-04-29T09:07:47.033Z,33.80
2019-04-29T09:10:17.834Z,37.17
2019-04-29T09:12:48.309Z,32.23
2019-04-29T09:15:19.384Z,31.65
2019-04-29T09:17:51.216Z,32.73
2019-04-29T09:20:23.149Z,30.17
2019-04-29T09:22:58.228Z,60.65
2019-04-29T09:26:06.184Z,68.15
2019-04-29T09:28:36.745Z,73.10
2019-04-29T09:31:09.909Z,75.55
2019-04-29T09:33:48.990Z,57.85
2019-04-29T09:39:21.256Z,47.35
2019-04-29T09:42:20.375Z,55.10
2019-04-29T09:47:55.844Z,49.30
2019-04-29T09:50:28.924Z,57.65
2019-04-29T09:53:05.950Z,41.13
2019-04-29T09:55:45.593Z,45.52
2019-04-29T09:58:16.731Z,55.52
2019-04-29T10:01:06.227Z,45.52
2019-04-29T10:03:50.966Z,80.15
2019-04-29T10:06:27.657Z,56.48
2019-04-29T10:08:58.144Z,70.37
2019-04-29T10:11:28.842Z,63.30
2019-04-29T10:13:59.859Z,68.95
2019-04-29T10:16:40.362Z,59.60
2019-04-29T10:19:37.459Z,47.43
2019-04-29T10:22:08.015Z,48.02
2019-04-29T10:24:38.437Z,61.98
2019-04-29T10:27:10.010Z,41.80
2019-04-29T10:29:41.963Z,45.55
2019-04-29T10:32:12.926Z,44.67
2019-04-29T10:34:44.864Z,42.43
2019-04-29T10:37:15.627Z,39.90
2019-04-29T10:39:55.050Z,45.50
2019-04-29T10:42:36.250Z,46.23
2019-04-29T10:45:18.547Z,39.55
2019-04-29T10:48:05.122Z,41.75
2019-04-29T10:50:37.699Z,33.60
2019-04-29T10:53:11.025Z,36.98
2019-04-29T10:55:42.146Z,34.43
2019-04-29T10:58:13.619Z,42.30
2019-04-29T11:04:08.732Z,33.80
2019-04-29T11:06:44.332Z,42.00
2019-04-29T11:09:33.681Z,40.83
2019-04-29T11:12:09.120Z,37.13
2019-04-29T11:14:39.681Z,34.43
2019-04-29T11:17:16.361Z,40.30
2019-04-29T11:20:04.461Z,39.00
2019-04-29T11:22:39.461Z,33.63
2019-04-29T11:25:33.485Z,27.32
2019-04-29T11:28:06.637Z,38.48
2019-04-29T11:30:43.566Z,35.95
2019-04-29T11:33:25.395Z,37.70
2019-04-29T11:36:05.890Z,25.08
2019-04-29T11:38:38.310Z,28.40
2019-04-29T11:41:19.555Z,31.23
2019-04-29T11:43:46.688Z,31.02
2019-04-29T11:46:16.803Z,24.95
2019-04-29T11:48:51.899Z,28.15
2019-04-29T11:51:41.717Z,23.70
2019-04-29T11:54:12.752Z,24.23
2019-04-29T11:56:41.993Z,22.55
2019-04-29T11:59:35.420Z,29.15
2019-04-29T12:02:44.742Z,23.22
2019-04-29T12:05:13.375Z,35.48
2019-04-29T12:07:43.826Z,31.75
2019-04-29T12:10:14.273Z,33.55
2019-04-29T12:12:47.745Z,32.60
2019-04-29T12:15:28.829Z,32.75
2019-04-29T12:18:20.850Z,33.75
2019-04-29T12:21:13.075Z,33.58
2019-04-29T12:23:43.575Z,33.70
2019-04-29T12:26:16.558Z,38.73
2019-04-29T12:28:49.496Z,33.80
2019-04-29T12:31:49.196Z,30.57
2019-04-29T12:34:30.077Z,30.95
2019-04-29T12:37:03.618Z,27.40
2019-04-29T12:39:56.089Z,44.60
2019-04-29T12:45:28.162Z,31.27
2019-04-29T12:48:25.095Z,28.52
2019-04-29T12:50:58.138Z,59.63
2019-04-29T12:53:49.250Z,57.30
2019-04-29T12:56:27.286Z,61.70
2019-04-29T12:59:01.811Z,145.72
2019-04-29T13:01:58.307Z,142.68
2019-04-29T13:04:45.002Z,134.52
